Time;durP1;ratioP1;P1;durP2;ratioP2;P2;SDS_P1;SDS_P2;PMS_P1;PMS_P2;Temp;Humidity;BMP_temperature;BMP_pressure;BME280_temperature;BME280_humidity;BME280_pressure;Samples;Min_cycle;Max_cycle;Signal;HPM_P1;HPM_P2
2023/12/03 00:00:26;;;;;;;;;0.00;0.00;;;;;0.87;100.00;101857.81;6337699;22;45253;-87
2023/12/03 00:02:51;;;;;;;;;0.00;0.00;;;;;0.79;100.00;101849.06;6310739;22;45873;-87
2023/12/03 00:05:16;;;;;;;;;0.00;0.00;;;;;0.85;100.00;101867.16;6335733;22;69572;-86
2023/12/03 00:07:43;;;;;;;;;0.00;0.00;;;;;0.85;100.00;101873.16;6336705;22;45276;-86
2023/12/03 00:10:08;;;;;;;;;0.00;0.00;;;;;0.82;100.00;101867.97;6337655;22;45288;-86
2023/12/03 00:12:34;;;;;;;;;0.00;0.00;;;;;0.81;100.00;101873.91;6311419;22;45250;-86
2023/12/03 00:14:59;;;;;;;;;7.00;7.00;;;;;0.73;100.00;101863.41;6336582;22;46835;-86
2023/12/03 00:17:24;;;;;;;;;0.00;0.00;;;;;0.79;100.00;101872.13;6311050;22;45321;-86
2023/12/03 00:19:50;;;;;;;;;0.00;0.00;;;;;0.69;100.00;101860.75;6336071;22;62814;-86
2023/12/03 00:22:15;;;;;;;;;0.00;0.00;;;;;0.66;100.00;101856.38;6336142;22;58415;-86
2023/12/03 00:24:41;;;;;;;;;0.00;0.00;;;;;0.70;100.00;101870.16;6309851;22;68481;-86
2023/12/03 00:27:06;;;;;;;;;0.00;0.00;;;;;0.70;100.00;101867.59;6336230;22;56729;-86
2023/12/03 00:29:31;;;;;;;;;0.00;0.00;;;;;0.65;100.00;101866.56;6337117;22;45625;-86
2023/12/03 00:31:57;;;;;;;;;0.00;0.00;;;;;0.68;100.00;101882.06;6310933;22;45583;-86
2023/12/03 00:34:22;;;;;;;;;0.00;0.00;;;;;0.65;100.00;101877.72;6337461;22;53386;-86
2023/12/03 00:36:47;;;;;;;;;4.00;4.00;;;;;0.58;100.00;101871.53;6310411;22;55000;-86
2023/12/03 00:39:13;;;;;;;;;0.00;0.00;;;;;0.66;100.00;101879.44;6309655;22;59830;-86
2023/12/03 00:41:38;;;;;;;;;0.00;0.00;;;;;0.54;100.00;101867.13;6336380;22;45265;-86
2023/12/03 00:44:04;;;;;;;;;0.00;0.00;;;;;0.65;100.00;101874.25;6336750;22;47587;-85
2023/12/03 00:46:30;;;;;;;;;0.00;0.00;;;;;0.61;100.00;101878.41;6338080;22;45307;-86
2023/12/03 00:48:55;;;;;;;;;0.00;0.00;;;;;0.60;100.00;101873.28;6310444;22;45400;-85
2023/12/03 00:51:20;;;;;;;;;0.00;0.00;;;;;0.52;100.00;101852.53;6309861;22;56365;-86
2023/12/03 00:53:46;;;;;;;;;0.00;0.00;;;;;0.57;100.00;101850.97;6311124;22;48098;-85
2023/12/03 00:56:11;;;;;;;;;0.00;0.00;;;;;0.57;100.00;101851.84;6336872;22;45360;-85
2023/12/03 00:58:37;;;;;;;;;0.00;0.00;;;;;0.52;100.00;101839.72;6336736;22;45285;-86
2023/12/03 01:01:03;;;;;;;;;0.00;0.00;;;;;0.63;100.00;101861.41;6337382;22;45332;-85
2023/12/03 01:03:28;;;;;;;;;0.00;0.00;;;;;0.57;100.00;101862.09;6337415;22;46892;-86
2023/12/03 01:05:54;;;;;;;;;0.00;0.00;;;;;0.62;100.00;101857.13;6336746;22;45558;-86
2023/12/03 01:08:19;;;;;;;;;0.00;0.00;;;;;0.57;100.00;101854.41;6336613;22;45286;-86
2023/12/03 01:10:45;;;;;;;;;0.00;0.00;;;;;0.57;100.00;101849.28;6310566;22;45199;-85
2023/12/03 01:13:10;;;;;;;;;0.00;0.00;;;;;0.62;100.00;101853.69;6309445;22;62555;-86
2023/12/03 01:15:36;;;;;;;;;0.00;0.00;;;;;0.55;100.00;101850.91;6336599;22;45735;-86
2023/12/03 01:18:01;;;;;;;;;0.00;0.00;;;;;0.54;100.00;101843.22;6362637;22;45308;-86
2023/12/03 01:20:26;;;;;;;;;0.00;0.00;;;;;0.55;100.00;101850.06;6309367;22;55557;-85
2023/12/03 01:22:52;;;;;;;;;0.00;0.00;;;;;0.58;100.00;101856.16;6309718;22;64780;-86
2023/12/03 01:25:17;;;;;;;;;0.00;0.00;;;;;0.56;100.00;101859.50;6335931;22;58093;-86
2023/12/03 01:27:42;;;;;;;;;0.00;0.00;;;;;0.46;100.00;101842.09;6335647;22;45229;-86
2023/12/03 01:30:08;;;;;;;;;0.00;0.00;;;;;0.52;100.00;101845.72;6336711;22;45416;-86
2023/12/03 01:32:33;;;;;;;;;0.00;0.00;;;;;0.56;100.00;101850.09;6335733;22;47342;-88
2023/12/03 01:34:59;;;;;;;;;0.00;0.00;;;;;0.51;100.00;101855.91;6309284;22;65731;-86
2023/12/03 01:37:24;;;;;;;;;0.00;0.00;;;;;0.54;100.00;101862.00;6336502;22;45297;-85
2023/12/03 01:39:49;;;;;;;;;0.00;0.00;;;;;0.52;100.00;101847.41;6363295;22;45191;-86
2023/12/03 01:42:15;;;;;;;;;0.00;0.00;;;;;0.51;100.00;101850.81;6336503;22;48266;-85
2023/12/03 01:44:40;;;;;;;;;7.00;7.00;;;;;0.50;100.00;101847.38;6336279;22;45647;-85
2023/12/03 01:47:05;;;;;;;;;0.00;0.00;;;;;0.49;100.00;101837.94;6335655;22;45248;-85
2023/12/03 01:49:31;;;;;;;;;0.00;0.00;;;;;0.51;100.00;101843.97;6309578;22;54999;-85
2023/12/03 01:51:57;;;;;;;;;0.00;0.00;;;;;0.58;100.00;101850.16;6336006;22;46944;-85
2023/12/03 01:54:27;;;;;;;;;0.75;0.75;;;;;0.57;100.00;101848.41;6336262;22;45493;-85
2023/12/03 01:56:52;;;;;;;;;0.00;0.00;;;;;0.58;100.00;101847.59;6337684;22;45287;-85
2023/12/03 01:59:18;;;;;;;;;0.00;0.00;;;;;0.66;100.00;101856.38;6335197;22;67322;-86
2023/12/03 02:01:43;;;;;;;;;0.00;0.00;;;;;0.71;100.00;101849.69;6336017;22;46825;-85
2023/12/03 02:04:08;;;;;;;;;0.00;0.00;;;;;0.76;100.00;101847.25;6309986;22;45635;-85
2023/12/03 02:06:34;;;;;;;;;0.00;0.00;;;;;0.82;100.00;101841.44;6336376;22;45296;-85
2023/12/03 02:08:59;;;;;;;;;0.00;0.00;;;;;0.81;100.00;101837.16;6335449;22;57824;-85
2023/12/03 02:11:25;;;;;;;;;0.00;0.00;;;;;0.83;100.00;101833.78;6309265;22;63148;-85
2023/12/03 02:13:51;;;;;;;;;0.00;0.00;;;;;0.83;100.00;101826.09;6336550;22;45340;-85
2023/12/03 02:16:16;;;;;;;;;0.00;0.00;;;;;0.88;100.00;101837.38;6336118;22;45300;-85
2023/12/03 02:18:41;;;;;;;;;0.00;0.00;;;;;0.85;100.00;101831.28;6336635;22;45510;-85
2023/12/03 02:21:07;;;;;;;;;0.00;0.00;;;;;0.91;100.00;101836.56;6309608;22;57276;-85
2023/12/03 02:23:33;;;;;;;;;0.00;0.00;;;;;0.87;100.00;101827.91;6335947;22;45411;-85
2023/12/03 02:25:58;;;;;;;;;0.00;0.00;;;;;0.90;100.00;101843.41;6309094;22;64084;-85
2023/12/03 02:28:24;;;;;;;;;0.00;0.00;;;;;0.99;100.00;101850.50;6335968;22;45441;-85
2023/12/03 02:30:50;;;;;;;;;0.00;0.00;;;;;0.97;100.00;101844.47;6309397;22;47375;-86
2023/12/03 02:33:15;;;;;;;;;0.00;0.00;;;;;1.08;100.00;101837.06;6336435;22;45375;-85
2023/12/03 02:35:40;;;;;;;;;0.00;0.00;;;;;1.09;100.00;101831.09;6337245;22;45165;-85
2023/12/03 02:38:06;;;;;;;;;0.00;0.00;;;;;1.14;100.00;101832.97;6362481;22;45276;-85
2023/12/03 02:40:32;;;;;;;;;0.00;0.00;;;;;1.15;100.00;101831.25;6309553;22;46959;-85
2023/12/03 02:42:58;;;;;;;;;0.00;0.00;;;;;1.14;100.00;101838.09;6335987;22;46044;-84
2023/12/03 02:45:23;;;;;;;;;0.00;0.00;;;;;1.16;100.00;101835.56;6336915;22;45244;-85
2023/12/03 02:47:49;;;;;;;;;0.00;0.00;;;;;1.26;100.00;101840.09;6335332;22;56300;-86
2023/12/03 02:50:14;;;;;;;;;0.00;0.00;;;;;1.22;100.00;101825.47;6308446;22;66115;-85
2023/12/03 02:52:40;;;;;;;;;0.00;0.00;;;;;1.31;100.00;101827.41;6334895;22;62307;-85
2023/12/03 02:55:06;;;;;;;;;0.00;0.00;;;;;1.30;100.00;101818.88;6336953;22;45280;-85
2023/12/03 02:57:31;;;;;;;;;0.00;0.00;;;;;1.35;100.00;101824.09;6336274;22;45476;-84
2023/12/03 02:59:56;;;;;;;;;0.00;0.00;;;;;1.43;100.00;101827.75;6336206;22;57588;-85
2023/12/03 03:02:22;;;;;;;;;0.00;0.00;;;;;1.50;100.00;101831.31;6335698;22;45422;-85
2023/12/03 03:04:47;;;;;;;;;0.00;0.00;;;;;1.52;100.00;101824.53;6334810;22;55070;-85
2023/12/03 03:07:13;;;;;;;;;0.67;0.67;;;;;1.53;100.00;101827.16;6334901;22;57035;-85
2023/12/03 03:09:38;;;;;;;;;0.00;0.00;;;;;1.52;100.00;101822.84;6334314;22;69406;-85
2023/12/03 03:12:04;;;;;;;;;0.00;0.00;;;;;1.52;100.00;101820.28;6334407;22;65722;-85
2023/12/03 03:14:29;;;;;;;;;0.00;0.00;;;;;1.61;100.00;101835.03;6335088;22;45297;-85
2023/12/03 03:16:54;;;;;;;;;0.00;0.00;;;;;1.54;100.00;101817.75;6335219;22;65846;-85
2023/12/03 03:19:20;;;;;;;;;0.00;0.00;;;;;1.54;100.00;101817.75;6337060;22;46737;-85
2023/12/03 03:21:45;;;;;;;;;0.00;0.00;;;;;1.60;100.00;101830.75;6307928;22;69620;-85
2023/12/03 03:24:10;;;;;;;;;0.00;0.00;;;;;1.70;100.00;101844.69;6308757;22;51355;-85
2023/12/03 03:26:39;;;;;;;;;0.00;0.00;;;;;1.80;100.00;101848.34;6308433;22;66578;-85
2023/12/03 03:29:06;;;;;;;;;0.00;0.00;;;;;1.80;100.00;101845.78;6336292;22;47160;-85
2023/12/03 03:31:31;;;;;;;;;0.00;0.00;;;;;1.78;100.00;101834.59;6336163;22;45674;-85
2023/12/03 03:33:56;;;;;;;;;4.00;4.00;;;;;1.85;100.00;101839.06;6309101;22;55096;-85
2023/12/03 03:36:21;;;;;;;;;0.00;0.00;;;;;1.91;100.00;101834.94;6336298;22;57323;-85
2023/12/03 03:38:47;;;;;;;;;0.00;0.00;;;;;1.97;100.00;101838.47;6308421;22;61993;-86
2023/12/03 03:41:12;;;;;;;;;0.00;0.00;;;;;2.01;100.00;101833.47;6337013;22;45253;-85
2023/12/03 03:43:38;;;;;;;;;0.00;0.00;;;;;2.07;100.00;101835.31;6334838;22;45316;-85
2023/12/03 03:46:03;;;;;;;;;1.00;1.00;;;;;2.12;100.00;101832.00;6335182;22;45358;-85
2023/12/03 03:48:29;;;;;;;;;0.00;0.00;;;;;2.21;100.00;101836.50;6336209;22;46269;-84
2023/12/03 03:50:55;;;;;;;;;0.00;0.00;;;;;2.21;100.00;101830.47;6310075;22;45376;-86
2023/12/03 03:53:20;;;;;;;;;0.00;0.00;;;;;2.15;100.00;101820.94;6310048;22;45172;-85
2023/12/03 03:55:45;;;;;;;;;0.00;0.00;;;;;2.18;100.00;101828.72;6336183;22;61223;-88
2023/12/03 03:58:11;;;;;;;;;0.00;0.00;;;;;2.20;100.00;101845.03;6310192;22;46917;-85
2023/12/03 04:00:36;;;;;;;;;0.00;0.00;;;;;2.09;100.00;101813.94;6337266;22;45273;-85
2023/12/03 04:03:01;;;;;;;;;0.00;0.00;;;;;2.09;100.00;101825.94;6310467;22;45348;-85
2023/12/03 04:05:27;;;;;;;;;0.00;0.00;;;;;2.06;100.00;101815.59;6310193;22;58464;-86
2023/12/03 04:07:55;;;;;;;;;0.00;0.00;;;;;2.06;100.00;101825.84;6335929;22;48235;-84
2023/12/03 04:10:21;;;;;;;;;3.00;3.00;;;;;1.96;100.00;101805.94;6310728;22;45572;-85
2023/12/03 04:12:47;;;;;;;;;1.00;1.00;;;;;2.03;100.00;101813.81;6337105;22;45311;-85
2023/12/03 04:15:13;;;;;;;;;0.00;0.00;;;;;1.95;100.00;101807.66;6336770;22;45469;-86
2023/12/03 04:17:38;;;;;;;;;0.00;0.00;;;;;1.98;100.00;101817.13;6336433;22;48156;-85
2023/12/03 04:20:06;;;;;;;;;0.00;0.00;;;;;2.01;100.00;101822.34;6336767;22;45283;-85
2023/12/03 04:22:32;;;;;;;;;0.00;0.00;;;;;1.87;100.00;101815.13;6338643;22;45215;-84
2023/12/03 04:24:57;;;;;;;;;0.00;0.00;;;;;1.97;100.00;101823.97;6337772;22;45361;-86
2023/12/03 04:27:23;;;;;;;;;3.00;0.00;;;;;2.00;100.00;101831.72;6335951;22;48146;-84
2023/12/03 04:29:48;;;;;;;;;0.00;0.00;;;;;2.02;100.00;101829.19;6336061;22;68274;-86
2023/12/03 04:32:13;;;;;;;;;0.00;0.00;;;;;2.03;100.00;101828.38;6309883;22;49785;-86
2023/12/03 04:34:40;;;;;;;;;0.00;0.00;;;;;2.00;100.00;101829.16;6336673;22;58646;-85
2023/12/03 04:37:05;;;;;;;;;0.00;0.00;;;;;1.99;100.00;101821.41;6337697;22;45998;-86
2023/12/03 04:39:30;;;;;;;;;0.00;0.00;;;;;2.00;100.00;101818.00;6337040;22;45343;-85
2023/12/03 04:41:56;;;;;;;;;0.00;0.00;;;;;2.01;100.00;101819.75;6336794;22;45272;-85
2023/12/03 04:44:21;;;;;;;;;0.00;0.00;;;;;1.97;100.00;101818.81;6336992;22;45285;-84
2023/12/03 04:46:46;;;;;;;;;1.00;1.00;;;;;2.00;100.00;101818.00;6309605;22;57275;-85
2023/12/03 04:49:12;;;;;;;;;0.00;0.00;;;;;2.01;100.00;101802.66;6310004;22;56090;-85
2023/12/03 04:51:37;;;;;;;;;0.00;0.00;;;;;2.04;100.00;101815.53;6336857;22;55682;-85
2023/12/03 04:54:02;;;;;;;;;3.00;0.00;;;;;2.07;100.00;101810.47;6336580;22;45453;-85
2023/12/03 04:56:28;;;;;;;;;0.00;0.00;;;;;2.13;100.00;101827.72;6335929;22;46907;-85
2023/12/03 04:58:53;;;;;;;;;0.00;0.00;;;;;2.16;100.00;101824.38;6310001;22;63333;-86
2023/12/03 05:01:19;;;;;;;;;0.00;0.00;;;;;2.18;100.00;101817.59;6336856;22;45215;-86
2023/12/03 05:03:47;;;;;;;;;0.00;0.00;;;;;2.23;100.00;101809.16;6310438;22;45362;-85
2023/12/03 05:06:13;;;;;;;;;0.00;0.00;;;;;2.25;100.00;101811.75;6336426;22;45529;-85
2023/12/03 05:08:38;;;;;;;;;0.00;0.00;;;;;2.31;100.00;101806.75;6336789;22;45208;-85
2023/12/03 05:11:05;;;;;;;;;0.00;0.00;;;;;2.32;100.00;101806.78;6335975;22;45263;-85
2023/12/03 05:13:31;;;;;;;;;0.00;0.00;;;;;2.36;100.00;101805.16;6337323;22;45293;-86
2023/12/03 05:15:56;;;;;;;;;0.00;0.00;;;;;2.33;100.00;101805.94;6337884;22;46912;-86
2023/12/03 05:18:21;;;;;;;;;0.00;0.00;;;;;2.38;100.00;101800.91;6309534;22;62059;-86
2023/12/03 05:20:48;;;;;;;;;1.00;1.00;;;;;2.39;100.00;101807.75;6336744;22;51651;-87
2023/12/03 05:23:13;;;;;;;;;0.00;0.00;;;;;2.39;100.00;101801.78;6338326;22;45456;-87
2023/12/03 05:25:38;;;;;;;;;0.00;0.00;;;;;2.42;100.00;101805.28;6309405;22;57765;-85
2023/12/03 05:28:04;;;;;;;;;0.00;0.00;;;;;2.40;100.00;101795.81;6310641;22;45704;-86
2023/12/03 05:30:32;;;;;;;;;0.00;0.00;;;;;2.46;100.00;101789.09;6338209;22;45375;-86
2023/12/03 05:32:58;;;;;;;;;0.00;0.00;;;;;2.42;100.00;101768.44;6337526;22;45237;-86
2023/12/03 05:35:23;;;;;;;;;0.00;0.00;;;;;2.50;100.00;101782.31;6337346;22;46835;-87
2023/12/03 05:37:49;;;;;;;;;0.00;0.00;;;;;2.50;100.00;101785.72;6336589;22;45304;-86
2023/12/03 05:40:14;;;;;;;;;0.00;0.00;;;;;2.48;100.00;101776.28;6338221;22;45256;-86
2023/12/03 05:42:40;;;;;;;;;0.00;0.00;;;;;2.49;100.00;101775.44;6336303;22;55292;-86
2023/12/03 05:45:06;;;;;;;;;0.00;0.00;;;;;2.53;100.00;101774.66;6336659;22;55504;-89
2023/12/03 05:47:31;;;;;;;;;1.00;0.00;;;;;2.51;100.00;101768.63;6336575;22;45660;-86
2023/12/03 05:50:01;;;;;;;;;0.25;0.25;;;;;2.48;100.00;101769.41;6311194;22;45358;-87
2023/12/03 05:52:27;;;;;;;;;0.00;0.00;;;;;2.56;100.00;101782.41;6310831;22;45446;-87
2023/12/03 05:54:53;;;;;;;;;0.00;0.00;;;;;2.61;100.00;101783.41;6309980;22;47093;-87
2023/12/03 05:57:18;;;;;;;;;0.00;0.00;;;;;2.59;100.00;101776.50;6336575;22;45262;-87
2023/12/03 05:59:43;;;;;;;;;0.00;0.00;;;;;2.58;100.00;101778.22;6309376;22;62511;-87
2023/12/03 06:02:13;;;;;;;;;0.50;0.50;;;;;2.54;100.00;101780.66;6337177;22;45222;-87
2023/12/03 06:04:39;;;;;;;;;0.00;0.00;;;;;2.58;100.00;101797.88;6311136;22;47075;-87
2023/12/03 06:07:04;;;;;;;;;0.00;0.00;;;;;2.52;100.00;101790.91;6338175;22;45415;-87
2023/12/03 06:09:30;;;;;;;;;0.00;0.00;;;;;2.50;100.00;101782.31;6336316;22;45333;-87
2023/12/03 06:11:55;;;;;;;;;0.00;0.00;;;;;2.48;100.00;101779.69;6310950;22;45326;-87
2023/12/03 06:14:20;;;;;;;;;0.00;0.00;;;;;2.50;100.00;101785.72;6336083;22;52713;-87
2023/12/03 06:16:46;;;;;;;;;0.00;0.00;;;;;2.48;100.00;101781.41;6336451;22;45227;-87
2023/12/03 06:19:11;;;;;;;;;4.00;4.00;;;;;2.41;100.00;101777.81;6337113;22;45222;-87
2023/12/03 06:21:36;;;;;;;;;0.00;0.00;;;;;2.38;100.00;101771.75;6310403;22;45172;-87
2023/12/03 06:24:02;;;;;;;;;0.00;0.00;;;;;2.39;100.00;101776.06;6337713;22;52283;-87
2023/12/03 06:26:27;;;;;;;;;0.00;0.00;;;;;2.37;100.00;101763.19;6336360;22;45483;-87
2023/12/03 06:28:53;;;;;;;;;1.00;1.00;;;;;2.46;100.00;101768.53;6336889;22;45290;-87
2023/12/03 06:31:18;;;;;;;;;0.00;0.00;;;;;2.43;100.00;101772.72;6310390;22;45230;-87
2023/12/03 06:33:46;;;;;;;;;0.00;0.00;;;;;2.44;100.00;101770.19;6310360;22;47319;-87
2023/12/03 06:36:12;;;;;;;;;0.00;0.00;;;;;2.47;100.00;101769.38;6336749;22;45277;-87
2023/12/03 06:38:37;;;;;;;;;0.00;0.00;;;;;2.50;100.00;101777.16;6336564;22;45295;-87
2023/12/03 06:41:03;;;;;;;;;0.00;0.00;;;;;2.54;100.00;101788.38;6309974;22;45331;-87
2023/12/03 06:43:28;;;;;;;;;5.50;5.50;;;;;2.45;100.00;101756.53;6310070;22;48032;-87
2023/12/03 06:45:53;;;;;;;;;0.00;0.00;;;;;2.54;100.00;101771.25;6336275;22;45482;-87
2023/12/03 06:48:21;;;;;;;;;1.33;1.33;;;;;2.59;100.00;101758.50;6336855;22;47186;-87
2023/12/03 06:50:46;;;;;;;;;0.00;0.00;;;;;2.59;100.00;101759.34;6336788;22;45286;-87
2023/12/03 06:53:11;;;;;;;;;1.00;1.00;;;;;2.61;100.00;101769.69;6335926;22;47977;-87
2023/12/03 06:55:37;;;;;;;;;0.00;0.00;;;;;2.61;100.00;101769.69;6309527;22;45528;-87
2023/12/03 06:58:02;;;;;;;;;0.00;0.00;;;;;2.67;100.00;101782.66;6309873;22;49113;-87
2023/12/03 07:00:28;;;;;;;;;1.50;1.50;;;;;2.57;100.00;101770.47;6310140;22;45192;-86
2023/12/03 07:02:54;;;;;;;;;0.00;0.00;;;;;2.64;100.00;101775.75;6336007;22;48360;-87
2023/12/03 07:05:19;;;;;;;;;0.00;0.00;;;;;2.66;100.00;101783.50;6310061;22;54185;-85
2023/12/03 07:07:48;;;;;;;;;0.00;0.00;;;;;2.66;100.00;101771.50;6337019;22;45424;-87
2023/12/03 07:10:14;;;;;;;;;0.00;0.00;;;;;2.69;100.00;101781.88;6336773;22;45356;-87
2023/12/03 07:12:40;;;;;;;;;0.00;0.00;;;;;2.75;100.00;101775.97;6335770;22;47814;-87
2023/12/03 07:15:06;;;;;;;;;0.00;0.00;;;;;2.70;100.00;101765.59;6310337;22;47989;-87
2023/12/03 07:17:31;;;;;;;;;1.00;0.00;;;;;2.76;100.00;101772.53;6336459;22;45239;-87
2023/12/03 07:19:57;;;;;;;;;10.00;10.00;;;;;2.67;100.00;101756.94;6335508;22;45250;-87
2023/12/03 07:22:22;;;;;;;;;0.00;0.00;;;;;2.76;100.00;101772.53;6335769;22;46424;-87
2023/12/03 07:24:47;;;;;;;;;0.00;0.00;;;;;2.77;100.00;101764.00;6309229;22;45917;-86
2023/12/03 07:27:13;;;;;;;;;0.00;0.00;;;;;2.82;100.00;101770.13;6337141;22;45222;-87
2023/12/03 07:29:38;;;;;;;;;0.00;0.00;;;;;2.85;100.00;101775.31;6311140;22;45368;-87
2023/12/03 07:32:04;;;;;;;;;0.00;0.00;;;;;2.89;100.00;101794.22;6336655;22;62143;-87
2023/12/03 07:34:29;;;;;;;;;0.00;0.00;;;;;2.85;100.00;101787.31;6337716;22;45619;-87
2023/12/03 07:36:55;;;;;;;;;0.00;0.00;;;;;2.79;100.00;101779.47;6339365;22;45220;-87
2023/12/03 07:39:20;;;;;;;;;0.00;0.00;;;;;2.85;100.00;101795.88;6336807;22;60082;-88
2023/12/03 07:41:53;;;;;;;;;0.00;0.00;;;;;2.80;100.00;101776.06;6311348;22;47172;-87
2023/12/03 07:44:18;;;;;;;;;0.00;0.00;;;;;2.81;100.00;101777.81;6337316;22;45338;-87
2023/12/03 07:46:44;;;;;;;;;0.00;0.00;;;;;2.84;100.00;101786.44;6309670;22;45460;-87
2023/12/03 07:49:09;;;;;;;;;0.00;0.00;;;;;2.85;100.00;101783.03;6337038;22;46906;-87
2023/12/03 07:51:35;;;;;;;;;0.00;0.00;;;;;2.85;100.00;101785.59;6337175;22;47127;-87
2023/12/03 07:54:00;;;;;;;;;0.00;0.00;;;;;2.80;100.00;101771.75;6336637;22;45446;-87
2023/12/03 07:56:41;;;;;;;;;0.00;0.00;;;;;2.85;100.00;101767.59;6337440;22;45345;-88
2023/12/03 07:59:07;;;;;;;;;0.00;0.00;;;;;2.88;100.00;101777.09;6364175;22;45447;-87
2023/12/03 08:01:33;;;;;;;;;2.00;2.00;;;;;2.77;100.00;101753.72;6337039;22;45428;-86
2023/12/03 08:03:59;;;;;;;;;0.00;0.00;;;;;2.75;100.00;101746.81;6338048;22;45582;-87
2023/12/03 08:06:25;;;;;;;;;0.00;0.00;;;;;2.78;100.00;101747.72;6338881;22;45398;-89
2023/12/03 08:08:52;;;;;;;;;9.00;9.00;;;;;2.82;100.00;101746.97;6337100;22;45450;-87
2023/12/03 08:11:17;;;;;;;;;1.00;1.00;;;;;2.80;100.00;101753.75;6336882;22;48562;-86
2023/12/03 08:13:42;;;;;;;;;0.00;0.00;;;;;2.77;100.00;101752.84;6310619;22;45344;-86
2023/12/03 08:16:08;;;;;;;;;0.00;0.00;;;;;2.77;100.00;101745.13;6336992;22;47164;-87
2023/12/03 08:18:34;;;;;;;;;1.00;1.00;;;;;2.73;100.00;101744.22;6310203;22;45352;-87
2023/12/03 08:20:59;;;;;;;;;6.50;5.00;;;;;2.72;100.00;101734.75;6310735;22;48259;-87
2023/12/03 08:23:27;;;;;;;;;0.00;0.00;;;;;2.69;100.00;101733.00;6338826;22;45307;-87
2023/12/03 08:25:54;;;;;;;;;0.00;0.00;;;;;2.75;100.00;101747.69;6310398;22;59143;-87
2023/12/03 08:28:19;;;;;;;;;0.00;0.00;;;;;2.67;100.00;101736.38;6338984;22;45510;-87
2023/12/03 08:30:45;;;;;;;;;0.25;0.25;;;;;2.69;100.00;101740.72;6337704;22;48510;-90
2023/12/03 08:33:10;;;;;;;;;0.00;0.00;;;;;2.68;100.00;101754.41;6310331;22;61655;-86
2023/12/03 08:35:36;;;;;;;;;0.00;0.00;;;;;2.67;100.00;101742.38;6337746;22;45439;-87
2023/12/03 08:38:01;;;;;;;;;0.00;0.00;;;;;2.71;100.00;101749.34;6338696;22;45306;-87
2023/12/03 08:40:26;;;;;;;;;0.00;0.00;;;;;2.65;100.00;101746.63;6284425;22;50024;-85
2023/12/03 08:42:52;;;;;;;;;0.00;0.00;;;;;2.61;100.00;101741.41;6337390;22;53388;-85
2023/12/03 08:45:17;;;;;;;;;0.00;0.00;;;;;2.73;100.00;101757.09;6339056;22;45293;-87
2023/12/03 08:47:43;;;;;;;;;1.00;1.00;;;;;2.70;100.00;101739.88;6362925;22;45292;-87
2023/12/03 08:50:08;;;;;;;;;6.00;6.00;;;;;2.70;100.00;101745.00;6310276;22;47224;-87
2023/12/03 08:52:34;;;;;;;;;0.00;0.00;;;;;2.67;100.00;101742.38;6336662;22;45473;-86
2023/12/03 08:55:00;;;;;;;;;3.00;3.00;;;;;2.67;100.00;101732.09;6336505;22;46440;-86
2023/12/03 08:57:26;;;;;;;;;0.00;0.00;;;;;2.78;100.00;101746.88;6338424;22;45242;-87
2023/12/03 08:59:53;;;;;;;;;0.00;0.00;;;;;2.84;100.00;101729.88;6336359;22;47125;-87
2023/12/03 09:02:19;;;;;;;;;1.00;1.00;;;;;2.83;100.00;101725.56;6336333;22;45363;-87
2023/12/03 09:04:44;;;;;;;;;0.00;0.00;;;;;2.91;100.00;101736.84;6336741;22;45224;-86
2023/12/03 09:07:09;;;;;;;;;1.00;0.00;;;;;2.96;100.00;101744.66;6309677;22;50766;-86
2023/12/03 09:09:35;;;;;;;;;0.00;0.00;;;;;2.88;100.00;101729.09;6336093;22;50973;-87
2023/12/03 09:12:00;;;;;;;;;0.00;0.00;;;;;2.96;100.00;101731.78;6336667;22;45233;-86
2023/12/03 09:14:27;;;;;;;;;0.00;0.00;;;;;2.98;100.00;101734.41;6310423;22;45338;-87
2023/12/03 09:16:53;;;;;;;;;1.00;1.00;;;;;2.99;100.00;101718.09;6336385;22;45352;-87
2023/12/03 09:19:18;;;;;;;;;0.50;0.50;;;;;3.07;100.00;101730.28;6337104;22;47013;-87
2023/12/03 09:21:44;;;;;;;;;0.00;0.00;;;;;3.06;100.00;101733.66;6309939;22;56926;-87
2023/12/03 09:24:09;;;;;;;;;0.00;0.00;;;;;3.08;100.00;101726.00;6337764;22;45417;-87
2023/12/03 09:26:34;;;;;;;;;4.00;4.00;;;;;3.10;100.00;101727.78;6337003;22;45202;-87
2023/12/03 09:29:00;;;;;;;;;0.75;0.75;;;;;3.15;100.00;101707.25;6337472;22;54495;-86
2023/12/03 09:31:25;;;;;;;;;0.00;0.00;;;;;3.17;100.00;101708.13;6336666;22;45316;-86
2023/12/03 09:33:50;;;;;;;;;0.00;0.00;;;;;3.26;100.00;101715.16;6310074;22;61792;-87
2023/12/03 09:36:16;;;;;;;;;0.00;0.00;;;;;3.18;100.00;101704.75;6310766;22;52424;-86
2023/12/03 09:38:42;;;;;;;;;1.50;1.50;;;;;3.30;100.00;101722.94;6337195;22;47134;-86
2023/12/03 09:41:09;;;;;;;;;0.00;0.00;;;;;3.32;100.00;101724.69;6337474;22;60292;-86
2023/12/03 09:43:40;;;;;;;;;0.00;0.00;;;;;3.36;100.00;101721.31;6340349;22;45273;-86
2023/12/03 09:46:12;;;;;;;;;2.50;2.50;;;;;3.34;100.00;101716.13;6338873;22;45457;-87
2023/12/03 09:48:45;;;;;;;;;0.00;0.00;;;;;3.38;100.00;101722.22;6341012;22;46703;-86
2023/12/03 09:51:14;;;;;;;;;3.00;3.00;;;;;3.37;100.00;101721.34;6353676;22;44681;-86
2023/12/03 09:53:50;;;;;;;;;0.00;0.00;;;;;3.42;100.00;101724.88;6324612;22;52544;-87
2023/12/03 09:56:16;;;;;;;;;3.00;3.00;;;;;3.45;100.00;101724.03;6350934;22;45340;-86
2023/12/03 09:58:45;;;;;;;;;0.00;0.00;;;;;3.48;100.00;101724.09;6337447;22;75368;-87
2023/12/03 10:01:10;;;;;;;;;4.00;4.00;;;;;3.54;100.00;101719.03;6340400;22;45335;-87
2023/12/03 10:03:35;;;;;;;;;0.00;0.00;;;;;3.59;100.00;101725.13;6315873;22;45141;-87
2023/12/03 10:06:05;;;;;;;;;0.00;0.00;;;;;3.66;100.00;101720.97;6316924;22;59616;-86
2023/12/03 10:08:32;;;;;;;;;0.00;0.00;;;;;3.69;100.00;101721.84;6343436;22;45585;-87
2023/12/03 10:11:03;;;;;;;;;0.00;0.00;;;;;3.75;100.00;101728.81;6344810;22;44604;-87
2023/12/03 10:13:29;;;;;;;;;4.00;4.00;;;;;3.73;100.00;101727.06;6317729;22;45297;-87
2023/12/03 10:15:58;;;;;;;;;0.00;0.00;;;;;3.87;100.00;101743.59;6342363;22;45280;-87
2023/12/03 10:18:26;;;;;;;;;1.00;1.00;;;;;3.85;100.00;101724.66;6340210;22;46948;-86
2023/12/03 10:21:05;;;;;;;;;0.00;0.00;;;;;3.86;100.00;101721.22;6337836;22;62807;-86
2023/12/03 10:23:31;;;;;;;;;0.00;0.00;;;;;3.87;100.00;101710.97;6336252;22;45329;-86
2023/12/03 10:26:08;;;;;;;;;0.00;0.00;;;;;3.91;100.00;101706.72;6309161;22;58923;-87
2023/12/03 10:28:34;;;;;;;;;3.00;1.00;;;;;3.95;100.00;101692.16;6336402;22;46256;-86
2023/12/03 10:31:00;;;;;;;;;0.00;0.00;;;;;3.99;100.00;101693.94;6335986;22;45167;-87
2023/12/03 10:33:25;;;;;;;;;0.00;0.00;;;;;4.05;100.00;101697.47;6310008;22;45210;-87
2023/12/03 10:35:52;;;;;;;;;0.75;0.75;;;;;4.02;100.00;101681.97;6335322;22;55089;-86
2023/12/03 10:38:17;;;;;;;;;9.00;9.00;;;;;4.09;100.00;101703.53;6337437;22;45516;-86
2023/12/03 10:40:43;;;;;;;;;0.00;0.00;;;;;4.07;100.00;101682.03;6309613;22;45400;-86
2023/12/03 10:43:11;;;;;;;;;0.67;0.67;;;;;4.16;100.00;101677.00;6308499;22;61522;-86
2023/12/03 10:45:36;;;;;;;;;0.00;0.00;;;;;4.28;100.00;101689.16;6309562;22;45512;-86
2023/12/03 10:48:04;;;;;;;;;0.00;0.00;;;;;4.38;100.00;101679.81;6335470;22;46220;-86
2023/12/03 10:50:30;;;;;;;;;0.00;0.00;;;;;4.47;100.00;101679.94;6335911;22;45221;-86
2023/12/03 10:52:58;;;;;;;;;0.00;0.00;;;;;4.53;100.00;101684.28;6335035;22;45293;-85
2023/12/03 10:55:24;;;;;;;;;0.00;0.00;;;;;4.52;100.00;101669.69;6335729;22;45441;-87
2023/12/03 10:57:58;;;;;;;;;7.00;7.00;;;;;4.56;100.00;101659.41;6335279;22;60046;-87
2023/12/03 11:00:24;;;;;;;;;7.00;7.00;;;;;4.63;100.00;101660.34;6336471;22;45286;-86
2023/12/03 11:03:03;;;;;;;;;0.00;0.00;;;;;4.70;100.00;101667.31;6337143;22;45318;-87
2023/12/03 11:05:34;;;;;;;;;0.00;0.00;;;;;4.67;100.00;101646.63;6337347;22;45233;-87
2023/12/03 11:08:01;;;;;;;;;0.00;0.00;;;;;4.74;100.00;101645.00;6336597;22;45371;-87
2023/12/03 11:10:27;;;;;;;;;0.00;0.00;;;;;4.75;100.00;101639.81;6338260;22;45220;-87
2023/12/03 11:12:53;;;;;;;;;0.00;0.00;;;;;4.81;100.00;101629.56;6337014;22;45240;-86
2023/12/03 11:15:19;;;;;;;;;0.00;0.00;;;;;4.93;100.00;101635.69;6310217;22;60526;-87
2023/12/03 11:17:45;;;;;;;;;3.50;3.50;;;;;5.02;100.00;101631.47;6336916;22;50076;-86